Time;durP1;ratioP1;P1;durP2;ratioP2;P2;SDS_P1;SDS_P2;PMS_P1;PMS_P2;Temp;Humidity;BMP_temperature;BMP_pressure;BME280_temperature;BME280_humidity;BME280_pressure;Samples;Min_cycle;Max_cycle;Signal;HPM_P1;HPM_P2
2023/09/24 00:00:20;;;;;;;5.10;3.78;;;14.20;99.90;;;;;;6215916;23;20020;-87
2023/09/24 00:02:46;;;;;;;6.90;4.32;;;15.20;99.90;;;;;;6214592;23;20085;-88
2023/09/24 00:05:13;;;;;;;6.78;4.18;;;14.00;99.90;;;;;;6216041;23;20489;-87
2023/09/24 00:07:59;;;;;;;5.03;3.22;;;15.10;99.90;;;;;;5047306;28;20369;-88
2023/09/24 00:10:24;;;;;;;7.18;3.42;;;14.10;99.90;;;;;;5025480;28;20037;-89
2023/09/24 00:12:50;;;;;;;6.47;3.38;;;13.90;99.90;;;;;;5031382;28;20057;-88
2023/09/24 00:15:16;;;;;;;4.78;3.28;;;15.20;99.90;;;;;;5034626;28;20502;-88
2023/09/24 00:17:41;;;;;;;5.63;3.85;;;14.00;99.90;;;;;;5045512;28;20026;-88
2023/09/24 00:20:07;;;;;;;3.20;2.90;;;14.80;99.90;;;;;;5035616;28;20032;-88
2023/09/24 00:22:51;;;;;;;8.85;3.90;;;13.90;99.90;;;;;;5044813;28;20108;-87
2023/09/24 00:25:35;;;;;;;7.50;3.47;;;15.20;99.90;;;;;;5026944;28;20533;-87
2023/09/24 00:28:01;;;;;;;4.18;2.80;;;13.90;99.90;;;;;;5025985;28;20045;-88
2023/09/24 00:30:43;;;;;;;8.40;4.15;;;13.90;99.90;;;;;;5042257;28;20079;-88
2023/09/24 00:33:24;;;;;;;6.55;3.15;;;13.90;99.90;;;;;;5046078;28;20025;-87
2023/09/24 00:35:51;;;;;;;5.45;3.50;;;13.90;99.90;;;;;;5026490;28;20017;-87
2023/09/24 00:38:36;;;;;;;8.38;3.55;;;13.90;99.90;;;;;;5036014;28;20089;-87
2023/09/24 00:41:02;;;;;;;6.70;3.08;;;14.00;99.90;;;;;;5027258;28;20021;-87
2023/09/24 00:43:34;;;;;;;5.18;2.90;;;14.70;99.90;;;;;;5034452;28;20029;-87
2023/09/24 00:46:04;;;;;;;7.40;3.03;;;13.80;99.90;;;;;;5044324;28;20037;-85
2023/09/24 00:48:50;;;;;;;4.18;2.47;;;14.80;99.90;;;;;;5007105;28;20034;-86
2023/09/24 00:51:34;;;;;;;6.18;2.50;;;14.30;99.90;;;;;;5028432;28;20030;-86
2023/09/24 00:54:00;;;;;;;8.57;2.90;;;13.80;99.90;;;;;;5036231;28;20024;-86
2023/09/24 00:56:44;;;;;;;5.57;2.47;;;14.90;99.90;;;;;;5042303;27;20025;-86
2023/09/24 00:59:09;;;;;;;3.92;2.17;;;13.80;99.90;;;;;;5058378;27;20040;-87
2023/09/24 01:01:36;;;;;;;6.03;2.78;;;14.90;99.90;;;;;;5048907;27;20038;-87
2023/09/24 01:04:15;;;;;;;4.60;2.45;;;13.80;99.90;;;;;;5039730;27;20029;-87
2023/09/24 01:07:02;;;;;;;7.43;3.28;;;13.70;99.90;;;;;;5067854;28;20093;-88
2023/09/24 01:09:37;;;;;;;3.97;2.80;;;14.60;99.90;;;;;;5115461;28;20115;-88
2023/09/24 01:12:03;;;;;;;5.88;2.70;;;15.10;99.90;;;;;;5124786;28;20487;-88
2023/09/24 01:14:29;;;;;;;5.25;2.58;;;14.40;99.90;;;;;;5124444;28;20031;-86
2023/09/24 01:16:58;;;;;;;5.75;2.03;;;14.10;99.90;;;;;;5129460;28;20035;-86
2023/09/24 01:19:23;;;;;;;2.85;2.28;;;13.70;99.90;;;;;;5110863;28;20027;-86
2023/09/24 01:21:50;;;;;;;8.27;2.47;;;13.90;99.90;;;;;;5106871;28;20024;-86
2023/09/24 01:24:16;;;;;;;5.18;2.33;;;14.40;99.90;;;;;;5096965;28;20146;-86
2023/09/24 01:26:44;;;;;;;6.35;2.03;;;14.00;99.90;;;;;;5094372;28;20391;-85
2023/09/24 01:29:09;;;;;;;3.83;2.10;;;14.00;99.90;;;;;;5102005;28;20036;-86
2023/09/24 01:31:38;;;;;;;5.60;2.35;;;14.70;99.90;;;;;;5115766;28;20375;-86
2023/09/24 01:34:08;;;;;;;5.60;2.22;;;14.00;99.90;;;;;;5112183;28;20031;-86
2023/09/24 01:36:34;;;;;;;4.18;2.42;;;13.60;99.90;;;;;;5104780;28;20093;-86
2023/09/24 01:39:00;;;;;;;7.10;2.20;;;14.80;99.90;;;;;;5102661;28;20530;-86
2023/09/24 01:41:25;;;;;;;5.55;2.30;;;13.60;99.90;;;;;;5111526;28;20004;-83
2023/09/24 01:43:52;;;;;;;4.60;2.00;;;14.60;99.90;;;;;;5117587;28;20032;-87
2023/09/24 01:46:20;;;;;;;6.32;2.38;;;13.90;99.90;;;;;;5100357;28;20043;-87
2023/09/24 01:48:51;;;;;;;5.38;2.85;;;13.50;99.90;;;;;;5109694;28;20031;-86
2023/09/24 01:51:17;;;;;;;7.35;2.78;;;14.80;99.90;;;;;;5116332;28;20031;-86
2023/09/24 01:53:42;;;;;;;3.83;2.50;;;12.50;99.90;;;;;;5110927;28;20110;-87
2023/09/24 01:56:09;;;;;;;6.22;2.70;;;14.30;99.90;;;;;;5114739;28;20027;-87
2023/09/24 01:58:38;;;;;;;10.98;2.92;;;14.30;99.90;;;;;;5096615;28;20173;-87
2023/09/24 02:01:04;;;;;;;7.03;3.00;;;13.50;99.90;;;;;;5099761;28;20030;-88
2023/09/24 02:03:46;;;;;;;7.28;2.97;;;13.50;99.90;;;;;;5111145;28;20020;-87
2023/09/24 02:06:30;;;;;;;4.70;2.97;;;14.60;99.90;;;;;;5114471;28;20043;-88
2023/09/24 02:09:14;;;;;;;7.13;2.65;;;13.50;99.90;;;;;;5109991;28;20036;-87
2023/09/24 02:11:58;;;;;;;5.60;3.05;;;15.00;99.90;;;;;;5108139;28;20028;-87
2023/09/24 02:14:39;;;;;;;3.70;2.95;;;14.10;99.90;;;;;;5104513;28;20404;-88
2023/09/24 02:17:30;;;;;;;7.28;3.22;;;13.40;99.90;;;;;;5094213;28;20383;-87
2023/09/24 02:20:14;;;;;;;6.22;3.20;;;13.50;99.90;;;;;;5094811;28;20032;-88
2023/09/24 02:25:48;;;;;;;7.63;2.80;;;12.60;99.90;;;;;;5034595;28;20037;-87
2023/09/24 02:28:28;;;;;;;6.28;2.65;;;13.60;99.90;;;;;;5095009;28;20032;-87
2023/09/24 02:31:05;;;;;;;4.00;2.85;;;12.40;99.90;;;;;;5092407;28;20028;-86
2023/09/24 02:33:52;;;;;;;7.65;3.25;;;14.80;99.90;;;;;;5095114;28;20023;-87
2023/09/24 02:36:18;;;;;;;7.90;3.83;;;13.30;99.90;;;;;;5108840;28;20067;-86
2023/09/24 02:38:53;;;;;;;5.13;3.55;;;12.40;99.90;;;;;;5124241;28;20164;-87
2023/09/24 02:41:41;;;;;;;8.52;3.50;;;12.70;99.90;;;;;;5104268;28;20353;-85
2023/09/24 02:44:29;;;;;;;5.70;2.97;;;12.70;99.90;;;;;;5105539;28;20055;-86
2023/09/24 02:47:10;;;;;;;5.07;3.05;;;13.30;99.90;;;;;;5104156;28;20040;-87
2023/09/24 02:49:51;;;;;;;5.47;3.35;;;13.30;99.90;;;;;;5109952;28;20019;-87
2023/09/24 02:52:29;;;;;;;;;;;14.00;99.90;;;;;;5143977;22;20110;-86
2023/09/24 02:55:13;;;;;;;8.00;3.38;;;12.50;99.90;;;;;;5068041;28;19908;-87
2023/09/24 02:57:57;;;;;;;5.13;3.20;;;13.20;99.90;;;;;;5053812;28;20025;-86
2023/09/24 03:00:45;;;;;;;6.05;3.15;;;14.50;99.90;;;;;;5064951;28;20052;-86
2023/09/24 03:03:25;;;;;;;6.03;3.50;;;13.10;99.90;;;;;;5071426;28;20024;-87
2023/09/24 03:06:06;;;;;;;7.30;4.05;;;13.50;99.90;;;;;;5071240;28;20392;-87
2023/09/24 03:09:22;;;;;;;4.68;3.20;;;13.20;99.90;;;;;;5072998;28;20032;-87
2023/09/24 03:11:59;;;;;;;8.45;3.08;;;12.90;99.90;;;;;;5058051;28;20124;-87
2023/09/24 03:14:30;;;;;;;9.15;3.78;;;13.10;99.90;;;;;;5052703;28;20071;-88
2023/09/24 03:16:56;;;;;;;7.55;3.58;;;13.10;99.90;;;;;;5052578;28;20563;-86
2023/09/24 03:19:37;;;;;;;8.68;3.88;;;14.20;99.90;;;;;;5069737;28;20054;-87
2023/09/24 03:22:02;;;;;;;6.45;4.00;;;12.90;99.90;;;;;;5072749;28;20111;-86
2023/09/24 03:24:28;;;;;;;7.35;3.72;;;13.90;99.90;;;;;;5127747;22;20136;-87
2023/09/24 03:26:53;;;;;;;7.38;3.97;;;13.10;99.90;;;;;;5058466;28;20037;-87
2023/09/24 03:29:19;;;;;;;8.63;3.60;;;13.10;99.90;;;;;;5056927;28;20448;-86
2023/09/24 03:31:45;;;;;;;6.85;3.78;;;13.20;99.90;;;;;;5065592;28;20009;-86
2023/09/24 03:34:23;;;;;;;6.25;4.00;;;13.70;99.90;;;;;;5065698;28;20106;-86
2023/09/24 03:36:48;;;;;;;11.50;3.70;;;14.00;99.90;;;;;;5056461;28;20107;-86
2023/09/24 03:39:23;;;;;;;6.72;4.22;;;13.90;99.90;;;;;;5070897;28;20035;-86
2023/09/24 03:42:09;;;;;;;5.18;3.97;;;13.10;99.90;;;;;;5059457;28;20037;-86
2023/09/24 03:44:47;;;;;;;9.40;4.43;;;13.90;99.90;;;;;;5053371;28;20029;-86
2023/09/24 03:47:14;;;;;;;9.13;4.50;;;14.10;99.90;;;;;;5070021;28;20107;-85
2023/09/24 03:49:45;;;;;;;8.60;4.45;;;13.00;99.90;;;;;;5069394;28;20024;-86
2023/09/24 03:52:12;;;;;;;12.05;4.82;;;14.10;99.90;;;;;;5061354;28;20512;-85
2023/09/24 03:54:53;;;;;;;4.55;3.97;;;13.00;99.90;;;;;;5012798;28;20040;-87
2023/09/24 03:57:38;;;;;;;7.35;4.20;;;13.50;99.90;;;;;;5067060;28;20483;-87
2023/09/24 04:00:20;;;;;;;5.60;3.88;;;14.10;99.90;;;;;;5060329;28;20066;-86
2023/09/24 04:03:01;;;;;;;10.50;4.95;;;13.10;99.90;;;;;;5069824;28;20024;-87
2023/09/24 04:05:28;;;;;;;9.25;4.30;;;13.50;99.90;;;;;;5062765;28;20025;-86
2023/09/24 04:08:05;;;;;;;10.88;4.90;;;13.00;99.90;;;;;;5070248;28;20144;-87
2023/09/24 04:10:52;;;;;;;11.85;4.45;;;13.10;99.90;;;;;;5089010;28;20020;-88
2023/09/24 04:13:18;;;;;;;8.20;4.93;;;13.00;99.90;;;;;;5091592;28;20013;-87
2023/09/24 04:16:09;;;;;;;6.10;4.38;;;13.20;99.90;;;;;;5077289;28;20488;-86
2023/09/24 04:18:50;;;;;;;9.25;5.50;;;12.90;99.90;;;;;;5075639;28;20032;-87
2023/09/24 04:21:38;;;;;;;6.45;4.65;;;12.90;99.90;;;;;;5080728;28;20024;-88
2023/09/24 04:26:48;;;;;;;6.70;5.00;;;12.90;99.90;;;;;;5080287;28;20059;-88
2023/09/24 04:29:15;;;;;;;13.63;5.38;;;13.40;99.90;;;;;;5067015;28;20036;-86
2023/09/24 04:34:45;;;;;;;9.80;5.50;;;12.90;99.90;;;;;;5054689;28;20029;-88
2023/09/24 04:37:29;;;;;;;5.43;4.50;;;13.60;99.90;;;;;;5060884;28;20112;-87
2023/09/24 04:40:14;;;;;;;6.03;5.15;;;13.80;99.90;;;;;;5058730;28;20031;-87
2023/09/24 04:42:43;;;;;;;8.43;4.95;;;12.80;99.90;;;;;;5048831;28;20462;-87
2023/09/24 04:45:13;;;;;;;7.03;5.38;;;12.80;99.90;;;;;;5065079;28;20094;-86
2023/09/24 04:47:39;;;;;;;8.63;5.40;;;13.60;99.90;;;;;;5068352;28;20422;-87
2023/09/24 04:50:07;;;;;;;12.27;5.85;;;12.80;99.90;;;;;;5071320;28;20031;-87
2023/09/24 04:52:33;;;;;;;9.23;6.05;;;12.80;99.90;;;;;;5070597;28;20463;-86
2023/09/24 04:54:59;;;;;;;7.97;6.25;;;13.20;99.90;;;;;;5075356;28;20016;-88
2023/09/24 04:57:25;;;;;;;8.18;6.28;;;13.20;99.90;;;;;;5090723;28;20032;-88
2023/09/24 04:59:53;;;;;;;9.25;6.63;;;13.60;99.90;;;;;;5058919;28;20058;-87
2023/09/24 05:02:21;;;;;;;8.27;6.35;;;12.70;99.90;;;;;;5075627;28;20032;-87
2023/09/24 05:04:48;;;;;;;10.15;6.70;;;13.20;99.90;;;;;;5074150;28;20384;-88
2023/09/24 05:07:13;;;;;;;8.40;6.25;;;13.70;99.90;;;;;;5063726;28;20036;-88
2023/09/24 05:09:39;;;;;;;12.80;6.65;;;13.50;99.90;;;;;;5059373;28;20498;-88
2023/09/24 05:12:04;;;;;;;9.15;6.57;;;13.80;99.90;;;;;;5058471;28;20028;-89
2023/09/24 05:14:30;;;;;;;7.32;5.70;;;12.70;99.90;;;;;;5073406;28;20400;-88
2023/09/24 05:17:02;;;;;;;8.38;6.15;;;13.70;99.90;;;;;;5069695;28;20115;-88
2023/09/24 05:19:36;;;;;;;9.90;6.32;;;12.80;99.90;;;;;;5060969;28;20033;-87
2023/09/24 05:22:02;;;;;;;10.13;6.47;;;12.50;99.90;;;;;;5076492;28;20021;-87
2023/09/24 05:24:36;;;;;;;8.77;5.68;;;13.80;99.90;;;;;;5072344;28;20122;-87
2023/09/24 05:27:07;;;;;;;7.80;6.88;;;13.80;99.90;;;;;;5055284;28;20033;-86
2023/09/24 05:29:39;;;;;;;10.38;6.43;;;12.60;99.90;;;;;;5059067;28;20562;-87
2023/09/24 05:32:04;;;;;;;14.75;6.65;;;13.60;99.90;;;;;;5074625;28;20025;-88
2023/09/24 05:34:42;;;;;;;6.57;5.97;;;13.40;99.90;;;;;;5073373;28;20028;-87
2023/09/24 05:37:08;;;;;;;11.27;6.43;;;13.80;99.90;;;;;;5057347;28;20040;-88
2023/09/24 05:39:58;;;;;;;11.77;6.15;;;12.80;99.90;;;;;;5072544;28;20025;-88
2023/09/24 05:42:46;;;;;;;9.88;6.32;;;13.80;99.90;;;;;;5075068;28;20025;-88
2023/09/24 05:45:12;;;;;;;8.30;6.68;;;12.10;99.90;;;;;;5067480;28;20043;-88
2023/09/24 05:47:47;;;;;;;19.58;7.60;;;13.20;99.90;;;;;;5055053;28;20029;-87
2023/09/24 05:50:12;;;;;;;14.93;9.00;;;12.40;99.90;;;;;;5063279;28;20456;-87
2023/09/24 05:52:50;;;;;;;17.38;9.38;;;11.50;99.90;;;;;;5066977;28;20032;-88
2023/09/24 05:55:15;;;;;;;7.70;6.30;;;12.20;99.90;;;;;;5062114;28;20032;-89
2023/09/24 05:57:58;;;;;;;11.23;6.88;;;13.20;99.90;;;;;;5060196;28;20033;-87
2023/09/24 06:00:38;;;;;;;7.03;6.32;;;12.30;99.90;;;;;;5076012;28;20491;-89
2023/09/24 06:06:40;;;;;;;7.63;6.28;;;11.80;99.90;;;;;;5024302;28;20008;-86
2023/09/24 06:12:18;;;;;;;7.80;5.75;;;12.30;99.90;;;;;;4997952;28;20038;-87
2023/09/24 06:15:05;;;;;;;8.40;6.00;;;11.90;99.90;;;;;;5026653;28;20040;-87
2023/09/24 06:17:43;;;;;;;8.35;5.57;;;12.30;99.90;;;;;;5049843;28;20018;-88
2023/09/24 06:20:37;;;;;;;11.35;6.22;;;13.60;99.90;;;;;;5151692;22;20173;-88
2023/09/24 06:23:25;;;;;;;7.13;5.28;;;12.40;99.90;;;;;;5071013;28;20043;-88
2023/09/24 06:26:13;;;;;;;10.95;5.88;;;12.30;99.90;;;;;;5070526;28;20487;-88
2023/09/24 06:29:05;;;;;;;6.00;5.38;;;12.40;99.90;;;;;;5067928;28;20116;-87
2023/09/24 06:31:47;;;;;;;12.60;5.18;;;12.50;99.90;;;;;;4988207;28;20426;-87
2023/09/24 06:34:37;;;;;;;6.85;4.93;;;12.30;99.90;;;;;;5073595;28;20480;-87
2023/09/24 06:37:04;;;;;;;7.35;4.47;;;12.30;99.90;;;;;;5071272;28;20066;-87
2023/09/24 06:39:52;;;;;;;5.80;4.78;;;12.40;99.90;;;;;;5070636;28;21688;-88
2023/09/24 06:42:45;;;;;;;9.93;5.80;;;11.80;99.90;;;;;;5071282;28;20021;-87
2023/09/24 06:45:27;;;;;;;6.00;5.38;;;13.40;99.90;;;;;;4996525;28;20498;-87
2023/09/24 06:47:52;;;;;;;6.10;5.32;;;13.70;99.90;;;;;;5072923;28;20044;-88
2023/09/24 06:50:34;;;;;;;10.93;5.32;;;13.50;99.90;;;;;;5067691;28;20391;-87
2023/09/24 06:53:24;;;;;;;5.80;5.00;;;13.40;99.90;;;;;;5072971;28;20032;-87
2023/09/24 06:56:09;;;;;;;7.82;4.55;;;12.90;99.90;;;;;;5030493;28;20057;-87
2023/09/24 06:58:56;;;;;;;7.22;4.95;;;12.80;99.90;;;;;;5072285;28;20035;-88
2023/09/24 07:01:22;;;;;;;11.65;4.95;;;12.50;99.90;;;;;;5080339;28;20069;-88
2023/09/24 07:04:08;;;;;;;4.50;4.10;;;12.40;99.90;;;;;;5078066;28;20036;-87
2023/09/24 07:06:59;;;;;;;8.05;4.55;;;12.90;99.90;;;;;;5071679;28;20021;-86
2023/09/24 07:09:46;;;;;;;6.43;4.82;;;12.50;99.90;;;;;;5072601;28;20020;-87
2023/09/24 07:12:36;;;;;;;9.50;5.28;;;12.80;99.90;;;;;;5079663;28;20033;-89
2023/09/24 07:15:29;;;;;;;8.75;5.20;;;12.60;99.90;;;;;;5068981;28;20032;-87
2023/09/24 07:18:10;;;;;;;5.32;4.25;;;12.70;99.90;;;;;;5069976;28;20032;-88
2023/09/24 07:21:25;;;;;;;7.88;4.50;;;13.80;99.90;;;;;;5061793;28;20070;-88
2023/09/24 07:24:42;;;;;;;7.32;4.25;;;13.20;99.90;;;;;;5081132;28;20023;-87
2023/09/24 07:30:19;;;;;;;7.85;4.28;;;12.90;99.90;;;;;;5071823;28;20133;-87
2023/09/24 07:33:09;;;;;;;7.72;4.50;;;12.70;99.90;;;;;;5073421;28;20020;-89
2023/09/24 07:35:49;;;;;;;8.05;4.38;;;13.60;99.90;;;;;;5072025;28;20037;-88
2023/09/24 07:38:30;;;;;;;;;;;12.90;99.90;;;;;;5071185;28;20039;-86
2023/09/24 07:41:14;;;;;;;11.80;4.05;;;12.50;99.90;;;;;;5071944;28;20006;-87
2023/09/24 07:43:44;;;;;;;7.95;4.32;;;14.20;99.90;;;;;;5071202;28;20450;-86
2023/09/24 07:46:19;;;;;;;5.57;4.45;;;14.00;99.90;;;;;;5068479;28;20476;-86
2023/09/24 07:49:05;;;;;;;5.95;4.88;;;13.00;99.90;;;;;;5071942;28;20042;-86
2023/09/24 07:51:49;;;;;;;8.00;4.45;;;13.10;99.90;;;;;;5067065;28;20028;-89
2023/09/24 07:54:20;;;;;;;7.00;3.80;;;13.10;99.90;;;;;;5067129;28;20046;-86
2023/09/24 07:56:46;;;;;;;9.13;4.32;;;13.20;99.90;;;;;;5069155;28;20108;-87
2023/09/24 07:59:12;;;;;;;6.50;3.63;;;13.70;99.90;;;;;;5072281;28;20463;-86
2023/09/24 08:01:50;;;;;;;6.68;3.63;;;13.20;99.90;;;;;;5073603;28;20021;-86
2023/09/24 08:04:15;;;;;;;4.20;3.70;;;14.50;99.90;;;;;;5075550;28;20103;-84
2023/09/24 08:09:45;;;;;;;7.20;4.55;;;13.30;99.90;;;;;;5070671;28;20024;-87
2023/09/24 08:12:34;;;;;;;8.30;5.13;;;13.40;99.90;;;;;;5072201;28;20021;-87
2023/09/24 08:15:18;;;;;;;7.43;4.95;;;13.40;99.90;;;;;;5029170;28;20127;-87
2023/09/24 08:17:56;;;;;;;9.10;4.70;;;13.50;99.90;;;;;;5069788;28;20079;-86
2023/09/24 08:20:47;;;;;;;12.90;4.57;;;14.80;99.90;;;;;;5065640;28;20064;-88
2023/09/24 08:23:18;;;;;;;6.65;3.95;;;13.80;99.90;;;;;;5069247;28;20024;-85
2023/09/24 08:25:43;;;;;;;7.57;4.25;;;13.90;99.90;;;;;;5069450;28;20391;-84
2023/09/24 08:28:14;;;;;;;9.48;4.05;;;13.70;99.90;;;;;;5072201;28;20028;-84
2023/09/24 08:31:10;;;;;;;8.45;4.63;;;13.70;99.90;;;;;;5072919;28;20048;-86
2023/09/24 08:34:06;;;;;;;;;;;;;;;;;;;;;
2023/09/24 08:36:36;;;;;;;7.32;4.13;;;14.40;99.90;;;;;;5047045;28;20388;-84
2023/09/24 08:39:03;;;;;;;9.05;3.42;;;13.70;99.90;;;;;;5059876;28;20021;-85
2023/09/24 08:41:28;;;;;;;4.45;3.03;;;13.80;99.90;;;;;;5074245;28;20115;-85
2023/09/24 08:44:11;;;;;;;10.65;3.45;;;14.30;99.90;;;;;;5065171;28;20119;-84
2023/09/24 08:46:37;;;;;;;6.82;3.10;;;15.10;99.90;;;;;;5072787;28;20070;-84
2023/09/24 08:49:04;;;;;;;4.80;2.97;;;14.30;99.90;;;;;;5072608;28;20036;-84
2023/09/24 08:51:49;;;;;;;4.72;2.80;;;14.00;99.90;;;;;;5072903;28;20031;-85
2023/09/24 08:54:15;;;;;;;7.82;3.40;;;14.10;99.90;;;;;;5065311;28;20020;-85
2023/09/24 08:56:40;;;;;;;5.05;2.67;;;15.20;99.90;;;;;;5063875;28;20040;-86
2023/09/24 08:59:06;;;;;;;7.60;3.78;;;14.10;99.90;;;;;;5085224;28;20016;-85
2023/09/24 09:01:32;;;;;;;9.98;3.85;;;14.20;99.90;;;;;;5058521;28;20103;-83
2023/09/24 09:03:58;;;;;;;5.50;2.88;;;14.20;99.90;;;;;;5058282;28;20861;-81
2023/09/24 09:06:43;;;;;;;8.00;2.72;;;15.10;99.90;;;;;;5083627;28;20070;-86
2023/09/24 09:09:26;;;;;;;5.05;2.35;;;14.60;99.90;;;;;;5081119;28;20095;-85
2023/09/24 09:12:02;;;;;;;3.67;2.30;;;14.40;99.90;;;;;;5070647;28;20031;-86
2023/09/24 09:17:39;;;;;;;5.45;2.28;;;14.70;99.90;;;;;;5089893;22;20522;-86
2023/09/24 09:20:18;;;;;;;9.90;2.65;;;15.40;99.90;;;;;;5072461;28;20025;-88
2023/09/24 09:23:02;;;;;;;4.90;2.47;;;15.10;99.90;;;;;;5071446;28;20033;-87
2023/09/24 09:25:28;;;;;;;6.60;2.33;;;14.60;99.90;;;;;;5073784;28;20016;-86
2023/09/24 09:27:53;;;;;;;4.60;2.08;;;15.90;99.90;;;;;;5073239;28;20043;-87
2023/09/24 09:30:34;;;;;;;6.97;3.10;;;15.90;99.90;;;;;;5074523;28;20499;-88
2023/09/24 09:33:23;;;;;;;2.92;2.33;;;14.70;99.90;;;;;;5072019;28;20107;-86
2023/09/24 09:35:51;;;;;;;5.32;2.40;;;14.80;99.90;;;;;;5071204;28;20036;-86
2023/09/24 09:38:17;;;;;;;4.25;2.28;;;16.20;99.90;;;;;;5056884;28;20055;-90
2023/09/24 09:40:58;;;;;;;7.55;2.63;;;15.80;99.90;;;;;;5073684;28;20037;-90
2023/09/24 09:43:46;;;;;;;6.45;2.40;;;16.00;99.90;;;;;;5073580;28;20529;-86
2023/09/24 09:46:21;;;;;;;5.20;2.10;;;15.00;99.90;;;;;;5050216;28;20039;-87
2023/09/24 09:49:07;;;;;;;3.35;1.90;;;15.00;99.90;;;;;;5075003;28;20071;-86
2023/09/24 09:51:54;;;;;;;5.65;2.83;;;16.40;99.90;;;;;;5072720;28;20027;-87
2023/09/24 09:54:36;;;;;;;6.13;2.42;;;15.60;99.90;;;;;;5088354;28;20032;-87
2023/09/24 09:57:04;;;;;;;4.30;2.38;;;15.10;99.90;;;;;;5071587;28;20375;-86
2023/09/24 09:59:34;;;;;;;4.63;2.35;;;15.20;99.90;;;;;;5072661;28;20031;-85
2023/09/24 10:02:02;;;;;;;4.40;2.28;;;15.20;99.90;;;;;;5070986;28;20025;-85
2023/09/24 10:04:30;;;;;;;5.28;2.40;;;14.50;99.90;;;;;;5072806;28;20032;-86
2023/09/24 10:06:56;;;;;;;4.90;2.83;;;14.40;99.90;;;;;;5071367;28;20127;-87
2023/09/24 10:09:42;;;;;;;7.82;2.55;;;15.30;99.90;;;;;;5092598;28;20028;-87
2023/09/24 10:12:08;;;;;;;9.48;2.38;;;16.10;99.90;;;;;;5076031;28;20037;-87
2023/09/24 10:14:38;;;;;;;5.70;4.20;;;15.50;99.90;;;;;;5073752;28;20028;-86
2023/09/24 10:17:16;;;;;;;5.82;2.35;;;15.50;99.90;;;;;;5069541;28;20048;-85
2023/09/24 10:19:53;;;;;;;4.65;2.60;;;15.60;99.90;;;;;;5074108;28;20036;-85
2023/09/24 10:22:33;;;;;;;4.35;2.33;;;15.50;99.90;;;;;;5074787;28;20017;-86
2023/09/24 10:25:01;;;;;;;5.15;2.83;;;15.60;99.90;;;;;;5077304;28;20032;-84
2023/09/24 10:27:31;;;;;;;4.70;2.03;;;15.70;99.90;;;;;;5090892;28;20036;-85
2023/09/24 10:29:57;;;;;;;10.65;1.90;;;15.80;99.90;;;;;;5093266;28;20009;-86
2023/09/24 10:32:25;;;;;;;3.90;1.80;;;16.00;99.90;;;;;;5078082;28;20032;-85
2023/09/24 10:34:59;;;;;;;4.35;1.85;;;15.90;99.90;;;;;;5073630;28;20079;-87
2023/09/24 10:37:39;;;;;;;5.35;1.77;;;15.90;99.90;;;;;;5065580;28;20114;-86
2023/09/24 10:40:09;;;;;;;6.07;1.92;;;16.00;99.90;;;;;;5053519;28;20440;-86
2023/09/24 10:42:42;;;;;;;4.78;1.88;;;16.00;99.90;;;;;;5062062;28;20037;-85
2023/09/24 10:45:08;;;;;;;7.85;2.38;;;16.00;99.90;;;;;;5073887;28;20027;-84
2023/09/24 10:47:42;;;;;;;5.40;2.00;;;16.10;99.90;;;;;;5080176;28;20036;-85
2023/09/24 10:50:11;;;;;;;5.25;2.05;;;16.10;99.90;;;;;;5072645;28;20025;-85
2023/09/24 10:52:52;;;;;;;5.68;2.15;;;16.30;99.90;;;;;;5071595;28;20028;-85
2023/09/24 10:55:19;;;;;;;5.25;2.35;;;16.10;99.90;;;;;;5060692;28;20029;-85
2023/09/24 10:57:53;;;;;;;6.88;2.22;;;16.20;99.90;;;;;;5069404;28;20135;-85
2023/09/24 11:00:20;;;;;;;3.70;2.30;;;16.20;99.90;;;;;;5065019;28;20020;-85
2023/09/24 11:02:53;;;;;;;5.95;2.17;;;16.30;99.90;;;;;;5051882;28;20036;-85
2023/09/24 11:05:18;;;;;;;5.93;1.88;;;16.30;99.90;;;;;;5070421;28;20025;-85
2023/09/24 11:07:45;;;;;;;8.30;2.47;;;16.40;99.90;;;;;;5067779;28;20037;-84
2023/09/24 11:10:10;;;;;;;1.75;1.60;;;16.80;99.90;;;;;;5073078;28;20024;-86
2023/09/24 11:12:36;;;;;;;4.55;1.85;;;16.50;99.90;;;;;;5085993;28;20024;-87
2023/09/24 11:15:02;;;;;;;3.10;2.00;;;16.40;99.90;;;;;;5067912;28;20190;-85
2023/09/24 11:17:28;;;;;;;4.57;2.17;;;16.50;99.90;;;;;;5066727;28;20041;-84
2023/09/24 11:19:53;;;;;;;2.95;1.77;;;16.50;99.90;;;;;;5068431;28;20354;-85
2023/09/24 11:22:21;;;;;;;2.72;1.58;;;16.60;99.90;;;;;;5068308;28;20040;-85
2023/09/24 11:25:03;;;;;;;4.53;1.52;;;16.70;99.90;;;;;;5055031;28;20082;-85
2023/09/24 11:27:29;;;;;;;3.15;1.77;;;16.50;99.90;;;;;;5065114;28;20037;-85
2023/09/24 11:29:59;;;;;;;6.97;1.92;;;16.70;99.90;;;;;;5059144;28;20097;-85
2023/09/24 11:32:26;;;;;;;8.23;1.73;;;16.70;99.90;;;;;;5069392;28;20040;-84
2023/09/24 11:35:11;;;;;;;3.83;1.92;;;16.70;99.90;;;;;;5071144;28;20032;-85
2023/09/24 11:37:49;;;;;;;4.97;1.83;;;16.80;99.90;;;;;;5067378;28;20085;-85
2023/09/24 11:40:34;;;;;;;5.30;1.70;;;16.90;99.90;;;;;;5065056;28;20028;-84
2023/09/24 11:43:04;;;;;;;5.15;1.58;;;16.90;99.90;;;;;;5069897;28;20097;-84
2023/09/24 11:45:48;;;;;;;4.53;1.90;;;16.90;99.90;;;;;;5065848;28;20029;-85
2023/09/24 11:48:18;;;;;;;4.15;1.80;;;17.60;99.90;;;;;;5050283;28;20095;-85
2023/09/24 11:50:50;;;;;;;5.13;2.13;;;17.00;99.90;;;;;;5052652;28;20100;-85
2023/09/24 11:53:17;;;;;;;5.88;1.70;;;17.10;99.90;;;;;;5061087;28;20435;-85
2023/09/24 11:55:43;;;;;;;2.60;1.45;;;17.20;99.90;;;;;;5050417;28;20043;-87
2023/09/24 11:58:11;;;;;;;5.97;1.75;;;17.10;99.90;;;;;;5065198;28;20020;-85
2023/09/24 12:00:37;;;;;;;4.55;1.40;;;17.20;99.90;;;;;;5056053;28;20036;-85
2023/09/24 12:03:04;;;;;;;6.28;1.58;;;17.70;99.90;;;;;;5054110;28;20025;-85
2023/09/24 12:05:30;;;;;;;4.72;2.10;;;17.20;99.90;;;;;;5071989;28;20028;-85
2023/09/24 12:07:55;;;;;;;3.53;1.45;;;17.60;99.90;;;;;;5067464;28;20040;-84
2023/09/24 12:10:21;;;;;;;2.80;1.35;;;17.30;99.90;;;;;;5072379;28;20024;-86
2023/09/24 12:12:51;;;;;;;4.43;1.80;;;17.30;99.90;;;;;;5073647;28;20071;-84
2023/09/24 12:15:18;;;;;;;3.78;1.95;;;17.40;99.90;;;;;;5067700;28;20116;-86
2023/09/24 12:17:46;;;;;;;3.80;1.65;;;17.40;99.90;;;;;;5051065;28;20285;-87
2023/09/24 12:20:13;;;;;;;2.03;1.38;;;17.50;99.90;;;;;;5054910;28;20024;-88
2023/09/24 12:22:41;;;;;;;6.10;2.45;;;17.60;99.90;;;;;;5062509;28;20027;-86
2023/09/24 12:25:11;;;;;;;5.45;1.60;;;17.50;99.90;;;;;;5064735;28;20020;-87
2023/09/24 12:27:38;;;;;;;3.40;1.73;;;18.30;99.90;;;;;;5066366;28;20043;-85
2023/09/24 12:30:06;;;;;;;3.90;1.80;;;17.80;99.90;;;;;;5065400;28;20028;-86
2023/09/24 12:32:32;;;;;;;6.95;1.52;;;17.70;99.90;;;;;;5057308;28;20037;-85
2023/09/24 12:34:58;;;;;;;2.53;1.40;;;17.60;99.90;;;;;;5071678;28;20025;-85
2023/09/24 12:37:23;;;;;;;3.42;1.17;;;17.70;99.90;;;;;;5070799;28;20023;-84
2023/09/24 12:39:49;;;;;;;3.70;1.38;;;17.80;99.90;;;;;;5057039;28;20095;-85
2023/09/24 12:42:15;;;;;;;4.70;1.45;;;17.90;99.90;;;;;;5064597;28;20019;-83
2023/09/24 12:44:40;;;;;;;4.07;1.52;;;17.80;99.90;;;;;;5068455;28;20111;-85
2023/09/24 12:47:06;;;;;;;5.57;1.90;;;17.80;99.90;;;;;;5058212;28;20388;-84
2023/09/24 12:49:32;;;;;;;3.92;1.85;;;18.00;99.90;;;;;;5067082;28;20437;-86
2023/09/24 12:51:57;;;;;;;2.45;1.50;;;18.30;99.90;;;;;;5065273;28;20040;-83
2023/09/24 12:54:24;;;;;;;5.03;1.60;;;18.00;99.90;;;;;;5071322;28;20475;-86
2023/09/24 12:56:52;;;;;;;2.90;1.63;;;18.10;99.90;;;;;;5054828;28;20033;-83
2023/09/24 12:59:18;;;;;;;2.45;1.20;;;18.10;99.90;;;;;;5061661;28;20082;-88
2023/09/24 13:01:46;;;;;;;4.05;1.60;;;18.20;99.90;;;;;;5063423;28;20457;-88
2023/09/24 13:04:12;;;;;;;4.20;1.65;;;18.20;99.90;;;;;;5072340;28;20024;-87
2023/09/24 13:06:43;;;;;;;2.55;1.20;;;18.30;99.90;;;;;;5066632;28;20035;-86
2023/09/24 13:09:09;;;;;;;2.63;1.50;;;18.10;99.90;;;;;;5071745;28;20080;-86
2023/09/24 13:11:39;;;;;;;10.38;2.47;;;18.40;99.90;;;;;;5064925;28;20048;-88
2023/09/24 13:14:23;;;;;;;4.40;1.80;;;18.90;99.90;;;;;;5067514;28;20016;-87
2023/09/24 13:16:48;;;;;;;2.75;1.45;;;18.40;99.90;;;;;;5070505;28;20059;-87
2023/09/24 13:19:14;;;;;;;2.38;1.52;;;18.50;99.90;;;;;;5079649;28;20025;-86
2023/09/24 13:21:41;;;;;;;2.55;1.63;;;18.40;99.90;;;;;;5075888;28;20020;-85
2023/09/24 13:24:08;;;;;;;3.92;1.73;;;18.60;99.90;;;;;;5074123;28;20033;-84
2023/09/24 13:26:52;;;;;;;3.95;1.30;;;18.60;99.90;;;;;;5086021;28;20047;-85
2023/09/24 13:29:30;;;;;;;2.78;1.40;;;18.60;99.90;;;;;;5088727;28;20100;-86
2023/09/24 13:31:56;;;;;;;4.30;1.65;;;19.60;99.90;;;;;;5070368;28;20033;-86
2023/09/24 13:34:21;;;;;;;4.35;0.90;;;20.00;99.90;;;;;;5062789;28;20442;-86
2023/09/24 13:36:47;;;;;;;3.08;0.90;;;18.90;99.90;;;;;;5076117;28;20447;-87
2023/09/24 13:39:13;;;;;;;4.15;1.10;;;18.80;99.90;;;;;;5063279;28;20016;-85
2023/09/24 13:41:39;;;;;;;5.50;1.98;;;18.70;99.90;;;;;;5074906;28;20491;-84
2023/09/24 13:44:05;;;;;;;2.92;1.50;;;19.10;99.90;;;;;;5061972;28;20025;-84
2023/09/24 13:46:31;;;;;;;2.90;1.42;;;19.00;99.90;;;;;;5070718;28;20484;-83